sensor_id;sensor_type;location;lat;lon;timestamp;P1;durP1;ratioP1;P2;durP2;ratioP2
4424;SDS011;2225;53.568;13.266;2023-12-20T00:02:15;6.60;;;1.50;;
4424;SDS011;2225;53.568;13.266;2023-12-20T00:04:42;4.00;;;1.30;;
4424;SDS011;2225;53.568;13.266;2023-12-20T00:07:09;3.80;;;1.17;;
4424;SDS011;2225;53.568;13.266;2023-12-20T00:09:36;6.67;;;1.50;;
4424;SDS011;2225;53.568;13.266;2023-12-20T00:12:03;4.70;;;1.43;;
4424;SDS011;2225;53.568;13.266;2023-12-20T00:14:30;4.10;;;1.50;;
4424;SDS011;2225;53.568;13.266;2023-12-20T00:16:57;4.40;;;1.23;;
4424;SDS011;2225;53.568;13.266;2023-12-20T00:19:24;10.20;;;1.10;;
4424;SDS011;2225;53.568;13.266;2023-12-20T00:21:51;3.33;;;1.00;;
4424;SDS011;2225;53.568;13.266;2023-12-20T00:24:18;7.90;;;1.60;;
4424;SDS011;2225;53.568;13.266;2023-12-20T00:26:45;3.43;;;0.90;;
4424;SDS011;2225;53.568;13.266;2023-12-20T00:29:12;5.27;;;1.40;;
4424;SDS011;2225;53.568;13.266;2023-12-20T00:31:38;5.70;;;1.20;;
4424;SDS011;2225;53.568;13.266;2023-12-20T00:34:05;5.17;;;1.00;;
4424;SDS011;2225;53.568;13.266;2023-12-20T00:36:33;3.53;;;1.07;;
4424;SDS011;2225;53.568;13.266;2023-12-20T00:39:00;4.23;;;1.00;;
4424;SDS011;2225;53.568;13.266;2023-12-20T00:41:27;3.73;;;1.10;;
4424;SDS011;2225;53.568;13.266;2023-12-20T00:43:54;4.20;;;1.07;;
4424;SDS011;2225;53.568;13.266;2023-12-20T00:46:21;4.23;;;1.10;;
4424;SDS011;2225;53.568;13.266;2023-12-20T00:48:48;5.10;;;1.30;;
4424;SDS011;2225;53.568;13.266;2023-12-20T00:51:15;5.50;;;1.60;;
4424;SDS011;2225;53.568;13.266;2023-12-20T00:53:42;5.40;;;1.77;;
4424;SDS011;2225;53.568;13.266;2023-12-20T00:56:09;6.27;;;1.40;;
4424;SDS011;2225;53.568;13.266;2023-12-20T00:58:36;5.17;;;1.17;;
4424;SDS011;2225;53.568;13.266;2023-12-20T01:01:03;5.30;;;1.37;;
4424;SDS011;2225;53.568;13.266;2023-12-20T01:03:30;3.57;;;0.90;;
4424;SDS011;2225;53.568;13.266;2023-12-20T01:05:57;8.10;;;1.80;;
4424;SDS011;2225;53.568;13.266;2023-12-20T01:08:24;4.40;;;1.10;;
4424;SDS011;2225;53.568;13.266;2023-12-20T01:10:51;4.40;;;1.23;;
4424;SDS011;2225;53.568;13.266;2023-12-20T01:13:18;5.10;;;1.30;;
4424;SDS011;2225;53.568;13.266;2023-12-20T01:15:45;4.63;;;1.40;;
4424;SDS011;2225;53.568;13.266;2023-12-20T01:18:13;6.27;;;1.30;;
4424;SDS011;2225;53.568;13.266;2023-12-20T01:20:41;4.73;;;1.27;;
4424;SDS011;2225;53.568;13.266;2023-12-20T01:23:08;5.47;;;1.40;;
4424;SDS011;2225;53.568;13.266;2023-12-20T01:25:35;8.90;;;1.83;;
4424;SDS011;2225;53.568;13.266;2023-12-20T01:28:02;5.30;;;1.40;;
4424;SDS011;2225;53.568;13.266;2023-12-20T01:30:29;4.57;;;1.50;;
4424;SDS011;2225;53.568;13.266;2023-12-20T01:32:56;5.50;;;1.80;;
4424;SDS011;2225;53.568;13.266;2023-12-20T01:35:23;5.17;;;1.50;;
4424;SDS011;2225;53.568;13.266;2023-12-20T01:37:50;4.67;;;1.40;;
4424;SDS011;2225;53.568;13.266;2023-12-20T01:40:17;6.40;;;1.57;;
4424;SDS011;2225;53.568;13.266;2023-12-20T01:42:45;4.93;;;1.57;;
4424;SDS011;2225;53.568;13.266;2023-12-20T01:45:13;6.37;;;1.63;;
4424;SDS011;2225;53.568;13.266;2023-12-20T01:47:40;15.20;;;2.00;;
4424;SDS011;2225;53.568;13.266;2023-12-20T01:50:07;3.83;;;1.40;;
4424;SDS011;2225;53.568;13.266;2023-12-20T01:52:35;5.23;;;1.73;;
4424;SDS011;2225;53.568;13.266;2023-12-20T01:55:02;4.03;;;1.37;;
4424;SDS011;2225;53.568;13.266;2023-12-20T01:57:37;4.57;;;1.60;;
4424;SDS011;2225;53.568;13.266;2023-12-20T02:00:04;5.20;;;1.37;;
4424;SDS011;2225;53.568;13.266;2023-12-20T02:02:33;11.57;;;1.77;;
4424;SDS011;2225;53.568;13.266;2023-12-20T02:05:00;7.83;;;1.40;;
4424;SDS011;2225;53.568;13.266;2023-12-20T02:07:29;4.70;;;1.07;;
4424;SDS011;2225;53.568;13.266;2023-12-20T02:09:57;7.10;;;2.30;;
4424;SDS011;2225;53.568;13.266;2023-12-20T02:12:24;5.43;;;1.40;;
4424;SDS011;2225;53.568;13.266;2023-12-20T02:14:51;11.50;;;1.40;;
4424;SDS011;2225;53.568;13.266;2023-12-20T02:17:18;3.40;;;1.07;;
4424;SDS011;2225;53.568;13.266;2023-12-20T02:19:45;6.83;;;1.57;;
4424;SDS011;2225;53.568;13.266;2023-12-20T02:22:13;4.63;;;1.13;;
4424;SDS011;2225;53.568;13.266;2023-12-20T02:24:40;5.60;;;1.50;;
4424;SDS011;2225;53.568;13.266;2023-12-20T02:27:07;4.77;;;1.43;;
4424;SDS011;2225;53.568;13.266;2023-12-20T02:29:35;6.60;;;1.70;;
4424;SDS011;2225;53.568;13.266;2023-12-20T02:32:02;10.40;;;1.90;;
4424;SDS011;2225;53.568;13.266;2023-12-20T02:34:29;11.97;;;1.80;;
4424;SDS011;2225;53.568;13.266;2023-12-20T02:36:56;6.87;;;1.47;;
4424;SDS011;2225;53.568;13.266;2023-12-20T02:39:23;21.27;;;2.47;;
4424;SDS011;2225;53.568;13.266;2023-12-20T02:41:50;5.40;;;1.27;;
4424;SDS011;2225;53.568;13.266;2023-12-20T02:44:17;7.30;;;1.10;;
4424;SDS011;2225;53.568;13.266;2023-12-20T02:46:44;9.37;;;1.47;;
4424;SDS011;2225;53.568;13.266;2023-12-20T02:49:11;6.00;;;1.50;;
4424;SDS011;2225;53.568;13.266;2023-12-20T02:51:38;9.20;;;1.40;;
4424;SDS011;2225;53.568;13.266;2023-12-20T02:54:05;6.63;;;1.43;;
4424;SDS011;2225;53.568;13.266;2023-12-20T02:56:32;7.30;;;1.57;;
4424;SDS011;2225;53.568;13.266;2023-12-20T02:58:59;7.20;;;1.37;;
4424;SDS011;2225;53.568;13.266;2023-12-20T03:01:27;7.37;;;1.50;;
4424;SDS011;2225;53.568;13.266;2023-12-20T03:03:55;7.27;;;1.37;;
4424;SDS011;2225;53.568;13.266;2023-12-20T03:06:23;7.10;;;1.40;;
4424;SDS011;2225;53.568;13.266;2023-12-20T03:08:50;5.60;;;1.43;;
4424;SDS011;2225;53.568;13.266;2023-12-20T03:11:16;3.90;;;1.20;;
4424;SDS011;2225;53.568;13.266;2023-12-20T03:13:43;5.80;;;1.77;;
4424;SDS011;2225;53.568;13.266;2023-12-20T03:16:11;7.80;;;1.60;;
4424;SDS011;2225;53.568;13.266;2023-12-20T03:18:39;8.43;;;1.20;;
4424;SDS011;2225;53.568;13.266;2023-12-20T03:21:06;5.80;;;1.70;;
4424;SDS011;2225;53.568;13.266;2023-12-20T03:23:33;8.00;;;1.23;;
4424;SDS011;2225;53.568;13.266;2023-12-20T03:26:00;16.07;;;1.80;;
4424;SDS011;2225;53.568;13.266;2023-12-20T03:28:27;8.97;;;1.90;;
4424;SDS011;2225;53.568;13.266;2023-12-20T03:30:54;7.17;;;1.67;;
4424;SDS011;2225;53.568;13.266;2023-12-20T03:33:21;14.20;;;2.17;;
4424;SDS011;2225;53.568;13.266;2023-12-20T03:35:48;10.17;;;2.37;;
4424;SDS011;2225;53.568;13.266;2023-12-20T03:38:15;8.93;;;1.90;;
4424;SDS011;2225;53.568;13.266;2023-12-20T03:40:42;9.57;;;2.40;;
4424;SDS011;2225;53.568;13.266;2023-12-20T03:43:09;9.93;;;2.50;;
4424;SDS011;2225;53.568;13.266;2023-12-20T03:45:36;17.20;;;2.50;;
4424;SDS011;2225;53.568;13.266;2023-12-20T03:48:04;6.90;;;2.33;;
4424;SDS011;2225;53.568;13.266;2023-12-20T03:50:31;10.83;;;2.17;;
4424;SDS011;2225;53.568;13.266;2023-12-20T03:52:58;6.57;;;1.97;;
4424;SDS011;2225;53.568;13.266;2023-12-20T03:55:25;14.03;;;2.80;;
4424;SDS011;2225;53.568;13.266;2023-12-20T03:57:53;14.70;;;2.97;;
4424;SDS011;2225;53.568;13.266;2023-12-20T04:00:20;9.70;;;2.47;;
4424;SDS011;2225;53.568;13.266;2023-12-20T04:02:47;14.07;;;2.90;;
4424;SDS011;2225;53.568;13.266;2023-12-20T04:05:14;16.63;;;3.07;;
4424;SDS011;2225;53.568;13.266;2023-12-20T04:07:41;12.93;;;3.07;;
4424;SDS011;2225;53.568;13.266;2023-12-20T04:10:08;14.23;;;3.53;;
4424;SDS011;2225;53.568;13.266;2023-12-20T04:12:35;14.60;;;3.40;;
4424;SDS011;2225;53.568;13.266;2023-12-20T04:15:02;16.37;;;2.40;;
4424;SDS011;2225;53.568;13.266;2023-12-20T04:17:35;13.90;;;2.83;;
4424;SDS011;2225;53.568;13.266;2023-12-20T04:20:02;11.63;;;2.60;;
4424;SDS011;2225;53.568;13.266;2023-12-20T04:22:30;22.60;;;3.10;;
4424;SDS011;2225;53.568;13.266;2023-12-20T04:24:57;23.00;;;2.97;;
4424;SDS011;2225;53.568;13.266;2023-12-20T04:27:24;10.70;;;2.87;;
4424;SDS011;2225;53.568;13.266;2023-12-20T04:29:51;24.87;;;3.20;;
4424;SDS011;2225;53.568;13.266;2023-12-20T04:32:18;9.53;;;3.30;;
4424;SDS011;2225;53.568;13.266;2023-12-20T04:34:45;18.37;;;2.63;;
4424;SDS011;2225;53.568;13.266;2023-12-20T04:37:12;18.40;;;3.20;;
4424;SDS011;2225;53.568;13.266;2023-12-20T04:39:39;10.50;;;2.90;;
4424;SDS011;2225;53.568;13.266;2023-12-20T04:42:07;17.30;;;3.13;;
4424;SDS011;2225;53.568;13.266;2023-12-20T04:44:34;21.77;;;3.10;;
4424;SDS011;2225;53.568;13.266;2023-12-20T04:47:01;17.40;;;3.07;;
4424;SDS011;2225;53.568;13.266;2023-12-20T04:49:29;21.90;;;2.83;;
4424;SDS011;2225;53.568;13.266;2023-12-20T04:51:56;23.33;;;3.13;;
4424;SDS011;2225;53.568;13.266;2023-12-20T04:54:23;17.53;;;3.27;;
4424;SDS011;2225;53.568;13.266;2023-12-20T04:56:50;18.27;;;3.10;;
4424;SDS011;2225;53.568;13.266;2023-12-20T04:59:17;20.77;;;3.30;;
4424;SDS011;2225;53.568;13.266;2023-12-20T05:01:44;18.67;;;3.20;;
4424;SDS011;2225;53.568;13.266;2023-12-20T05:04:11;14.20;;;2.77;;
4424;SDS011;2225;53.568;13.266;2023-12-20T05:06:38;24.10;;;2.90;;
4424;SDS011;2225;53.568;13.266;2023-12-20T05:09:05;20.60;;;2.73;;
4424;SDS011;2225;53.568;13.266;2023-12-20T05:11:32;16.10;;;2.37;;
4424;SDS011;2225;53.568;13.266;2023-12-20T05:13:59;11.40;;;2.30;;
4424;SDS011;2225;53.568;13.266;2023-12-20T05:16:26;20.70;;;3.20;;
4424;SDS011;2225;53.568;13.266;2023-12-20T05:18:53;21.43;;;3.20;;
4424;SDS011;2225;53.568;13.266;2023-12-20T05:21:20;14.80;;;2.70;;
4424;SDS011;2225;53.568;13.266;2023-12-20T05:23:47;7.83;;;2.10;;
4424;SDS011;2225;53.568;13.266;2023-12-20T05:26:14;17.60;;;2.97;;
4424;SDS011;2225;53.568;13.266;2023-12-20T05:28:41;16.37;;;3.70;;
4424;SDS011;2225;53.568;13.266;2023-12-20T05:31:08;23.03;;;3.13;;
4424;SDS011;2225;53.568;13.266;2023-12-20T05:33:35;26.57;;;3.10;;
4424;SDS011;2225;53.568;13.266;2023-12-20T05:36:02;16.67;;;2.70;;
4424;SDS011;2225;53.568;13.266;2023-12-20T05:38:30;16.90;;;2.90;;
4424;SDS011;2225;53.568;13.266;2023-12-20T05:40:57;19.60;;;3.17;;
4424;SDS011;2225;53.568;13.266;2023-12-20T05:43:24;15.13;;;3.60;;
4424;SDS011;2225;53.568;13.266;2023-12-20T05:45:51;16.33;;;3.00;;
4424;SDS011;2225;53.568;13.266;2023-12-20T05:48:18;19.63;;;2.50;;
4424;SDS011;2225;53.568;13.266;2023-12-20T05:50:45;15.50;;;2.77;;
4424;SDS011;2225;53.568;13.266;2023-12-20T05:53:12;35.20;;;4.00;;
4424;SDS011;2225;53.568;13.266;2023-12-20T05:55:38;19.77;;;2.90;;
4424;SDS011;2225;53.568;13.266;2023-12-20T05:58:06;15.30;;;2.50;;
4424;SDS011;2225;53.568;13.266;2023-12-20T06:00:33;8.47;;;2.00;;
4424;SDS011;2225;53.568;13.266;2023-12-20T06:03:00;20.43;;;2.90;;
4424;SDS011;2225;53.568;13.266;2023-12-20T06:05:27;24.50;;;3.17;;
4424;SDS011;2225;53.568;13.266;2023-12-20T06:07:54;12.73;;;2.67;;
4424;SDS011;2225;53.568;13.266;2023-12-20T06:10:23;13.67;;;2.60;;
4424;SDS011;2225;53.568;13.266;2023-12-20T06:12:50;12.40;;;2.80;;
4424;SDS011;2225;53.568;13.266;2023-12-20T06:15:17;11.43;;;2.83;;
4424;SDS011;2225;53.568;13.266;2023-12-20T06:17:44;24.77;;;3.40;;
4424;SDS011;2225;53.568;13.266;2023-12-20T06:20:13;14.57;;;3.47;;
4424;SDS011;2225;53.568;13.266;2023-12-20T06:22:41;16.23;;;3.30;;
4424;SDS011;2225;53.568;13.266;2023-12-20T06:25:08;11.13;;;2.50;;
4424;SDS011;2225;53.568;13.266;2023-12-20T06:27:35;27.17;;;3.20;;
4424;SDS011;2225;53.568;13.266;2023-12-20T06:30:02;17.97;;;2.83;;
4424;SDS011;2225;53.568;13.266;2023-12-20T06:32:29;10.23;;;2.53;;
4424;SDS011;2225;53.568;13.266;2023-12-20T06:34:57;19.27;;;3.37;;
4424;SDS011;2225;53.568;13.266;2023-12-20T06:37:24;15.23;;;3.10;;
4424;SDS011;2225;53.568;13.266;2023-12-20T06:39:51;18.43;;;2.70;;
4424;SDS011;2225;53.568;13.266;2023-12-20T06:42:18;34.30;;;4.10;;
4424;SDS011;2225;53.568;13.266;2023-12-20T06:44:45;18.03;;;3.33;;
4424;SDS011;2225;53.568;13.266;2023-12-20T06:47:12;17.90;;;3.17;;
4424;SDS011;2225;53.568;13.266;2023-12-20T06:49:40;14.33;;;3.20;;
4424;SDS011;2225;53.568;13.266;2023-12-20T06:52:07;18.33;;;4.00;;
4424;SDS011;2225;53.568;13.266;2023-12-20T06:54:34;16.10;;;2.93;;
4424;SDS011;2225;53.568;13.266;2023-12-20T06:57:01;13.37;;;3.03;;
4424;SDS011;2225;53.568;13.266;2023-12-20T06:59:30;22.57;;;4.40;;
4424;SDS011;2225;53.568;13.266;2023-12-20T07:01:57;19.03;;;3.27;;
4424;SDS011;2225;53.568;13.266;2023-12-20T07:04:24;19.10;;;3.80;;
4424;SDS011;2225;53.568;13.266;2023-12-20T07:06:51;21.60;;;3.50;;
4424;SDS011;2225;53.568;13.266;2023-12-20T07:09:20;19.30;;;3.83;;
4424;SDS011;2225;53.568;13.266;2023-12-20T07:11:47;14.73;;;2.70;;
4424;SDS011;2225;53.568;13.266;2023-12-20T07:14:14;17.57;;;3.33;;
4424;SDS011;2225;53.568;13.266;2023-12-20T07:16:41;12.03;;;3.77;;
4424;SDS011;2225;53.568;13.266;2023-12-20T07:19:08;10.17;;;2.70;;
4424;SDS011;2225;53.568;13.266;2023-12-20T07:21:35;10.90;;;2.40;;
4424;SDS011;2225;53.568;13.266;2023-12-20T07:24:02;14.30;;;2.83;;
4424;SDS011;2225;53.568;13.266;2023-12-20T07:26:29;18.70;;;3.20;;
4424;SDS011;2225;53.568;13.266;2023-12-20T07:28:56;14.93;;;4.00;;
4424;SDS011;2225;53.568;13.266;2023-12-20T07:31:24;18.60;;;3.43;;
4424;SDS011;2225;53.568;13.266;2023-12-20T07:33:51;18.30;;;3.33;;
4424;SDS011;2225;53.568;13.266;2023-12-20T07:36:19;13.73;;;2.93;;
4424;SDS011;2225;53.568;13.266;2023-12-20T07:38:47;23.83;;;3.57;;
4424;SDS011;2225;53.568;13.266;2023-12-20T07:41:14;11.13;;;3.00;;
4424;SDS011;2225;53.568;13.266;2023-12-20T07:43:47;9.40;;;2.50;;
4424;SDS011;2225;53.568;13.266;2023-12-20T07:46:14;12.33;;;2.20;;
4424;SDS011;2225;53.568;13.266;2023-12-20T07:48:41;10.57;;;2.77;;
4424;SDS011;2225;53.568;13.266;2023-12-20T07:51:11;14.67;;;3.20;;
4424;SDS011;2225;53.568;13.266;2023-12-20T07:53:38;11.43;;;2.53;;
4424;SDS011;2225;53.568;13.266;2023-12-20T07:56:18;15.73;;;4.07;;
4424;SDS011;2225;53.568;13.266;2023-12-20T07:58:46;11.33;;;3.20;;
4424;SDS011;2225;53.568;13.266;2023-12-20T08:01:19;14.00;;;3.83;;
4424;SDS011;2225;53.568;13.266;2023-12-20T08:03:48;17.20;;;4.23;;
4424;SDS011;2225;53.568;13.266;2023-12-20T08:06:16;24.73;;;3.90;;
4424;SDS011;2225;53.568;13.266;2023-12-20T08:08:43;14.30;;;3.20;;
4424;SDS011;2225;53.568;13.266;2023-12-20T08:11:10;18.87;;;3.60;;
4424;SDS011;2225;53.568;13.266;2023-12-20T08:13:37;19.50;;;4.07;;
4424;SDS011;2225;53.568;13.266;2023-12-20T08:16:04;14.13;;;3.90;;
4424;SDS011;2225;53.568;13.266;2023-12-20T08:18:32;19.63;;;3.27;;
4424;SDS011;2225;53.568;13.266;2023-12-20T08:21:00;18.43;;;3.67;;
4424;SDS011;2225;53.568;13.266;2023-12-20T08:23:27;14.63;;;3.53;;
4424;SDS011;2225;53.568;13.266;2023-12-20T08:25:58;11.03;;;3.47;;
4424;SDS011;2225;53.568;13.266;2023-12-20T08:28:25;12.97;;;3.80;;
4424;SDS011;2225;53.568;13.266;2023-12-20T08:30:52;14.97;;;4.00;;
4424;SDS011;2225;53.568;13.266;2023-12-20T08:33:20;22.77;;;3.67;;
4424;SDS011;2225;53.568;13.266;2023-12-20T08:35:47;15.03;;;3.93;;
4424;SDS011;2225;53.568;13.266;2023-12-20T08:38:14;13.53;;;3.67;;
4424;SDS011;2225;53.568;13.266;2023-12-20T08:40:42;16.77;;;3.80;;
4424;SDS011;2225;53.568;13.266;2023-12-20T08:43:10;19.53;;;2.90;;
4424;SDS011;2225;53.568;13.266;2023-12-20T08:45:37;10.63;;;3.40;;
4424;SDS011;2225;53.568;13.266;2023-12-20T08:48:05;18.07;;;3.33;;
4424;SDS011;2225;53.568;13.266;2023-12-20T08:50:35;22.97;;;3.40;;
4424;SDS011;2225;53.568;13.266;2023-12-20T08:53:03;26.50;;;3.90;;
4424;SDS011;2225;53.568;13.266;2023-12-20T08:55:30;18.23;;;3.13;;
4424;SDS011;2225;53.568;13.266;2023-12-20T08:57:57;9.93;;;3.00;;
4424;SDS011;2225;53.568;13.266;2023-12-20T09:00:25;17.93;;;4.17;;
4424;SDS011;2225;53.568;13.266;2023-12-20T09:02:54;18.00;;;3.00;;
4424;SDS011;2225;53.568;13.266;2023-12-20T09:05:21;15.17;;;3.83;;
4424;SDS011;2225;53.568;13.266;2023-12-20T09:07:49;14.23;;;3.27;;
4424;SDS011;2225;53.568;13.266;2023-12-20T09:10:16;17.43;;;4.10;;
4424;SDS011;2225;53.568;13.266;2023-12-20T09:12:49;11.13;;;3.00;;
4424;SDS011;2225;53.568;13.266;2023-12-20T09:15:17;16.97;;;3.43;;
4424;SDS011;2225;53.568;13.266;2023-12-20T09:17:44;14.20;;;3.40;;
4424;SDS011;2225;53.568;13.266;2023-12-20T09:20:12;13.47;;;3.33;;
4424;SDS011;2225;53.568;13.266;2023-12-20T09:22:39;12.53;;;3.63;;
4424;SDS011;2225;53.568;13.266;2023-12-20T09:25:08;14.47;;;2.90;;
4424;SDS011;2225;53.568;13.266;2023-12-20T09:27:36;13.60;;;3.40;;
4424;SDS011;2225;53.568;13.266;2023-12-20T09:30:04;28.30;;;3.57;;
4424;SDS011;2225;53.568;13.266;2023-12-20T09:32:31;20.23;;;3.80;;
4424;SDS011;2225;53.568;13.266;2023-12-20T09:34:58;20.13;;;4.07;;
4424;SDS011;2225;53.568;13.266;2023-12-20T09:37:26;13.60;;;3.00;;
4424;SDS011;2225;53.568;13.266;2023-12-20T09:39:54;14.97;;;3.60;;
4424;SDS011;2225;53.568;13.266;2023-12-20T09:42:24;25.33;;;4.20;;
4424;SDS011;2225;53.568;13.266;2023-12-20T09:45:04;15.93;;;3.80;;
4424;SDS011;2225;53.568;13.266;2023-12-20T09:47:35;20.03;;;3.77;;
4424;SDS011;2225;53.568;13.266;2023-12-20T09:50:03;22.63;;;4.00;;
4424;SDS011;2225;53.568;13.266;2023-12-20T09:52:31;19.13;;;3.57;;
4424;SDS011;2225;53.568;13.266;2023-12-20T09:54:59;25.10;;;4.97;;
4424;SDS011;2225;53.568;13.266;2023-12-20T09:57:32;24.93;;;5.20;;
4424;SDS011;2225;53.568;13.266;2023-12-20T09:59:59;15.63;;;3.67;;
4424;SDS011;2225;53.568;13.266;2023-12-20T10:02:26;32.97;;;3.53;;
4424;SDS011;2225;53.568;13.266;2023-12-20T10:04:54;17.53;;;3.40;;
4424;SDS011;2225;53.568;13.266;2023-12-20T10:07:21;18.33;;;3.47;;
4424;SDS011;2225;53.568;13.266;2023-12-20T10:09:49;26.07;;;3.60;;
4424;SDS011;2225;53.568;13.266;2023-12-20T10:12:20;23.93;;;3.73;;
4424;SDS011;2225;53.568;13.266;2023-12-20T10:14:47;22.93;;;3.87;;
4424;SDS011;2225;53.568;13.266;2023-12-20T10:17:14;16.00;;;3.00;;
4424;SDS011;2225;53.568;13.266;2023-12-20T10:19:42;15.13;;;3.67;;
4424;SDS011;2225;53.568;13.266;2023-12-20T10:22:10;17.30;;;3.83;;
4424;SDS011;2225;53.568;13.266;2023-12-20T10:24:37;18.00;;;5.40;;
4424;SDS011;2225;53.568;13.266;2023-12-20T10:27:04;18.93;;;4.17;;
4424;SDS011;2225;53.568;13.266;2023-12-20T10:29:33;11.43;;;3.10;;
4424;SDS011;2225;53.568;13.266;2023-12-20T10:32:21;19.70;;;3.13;;
4424;SDS011;2225;53.568;13.266;2023-12-20T10:34:50;14.47;;;3.13;;
4424;SDS011;2225;53.568;13.266;2023-12-20T10:37:19;31.07;;;4.03;;
4424;SDS011;2225;53.568;13.266;2023-12-20T10:39:50;13.60;;;2.63;;
4424;SDS011;2225;53.568;13.266;2023-12-20T10:42:24;15.70;;;3.57;;
4424;SDS011;2225;53.568;13.266;2023-12-20T10:44:53;15.23;;;3.43;;
4424;SDS011;2225;53.568;13.266;2023-12-20T10:47:20;16.90;;;3.17;;
4424;SDS011;2225;53.568;13.266;2023-12-20T10:49:47;20.57;;;2.97;;
4424;SDS011;2225;53.568;13.266;2023-12-20T10:52:14;17.87;;;4.17;;
4424;SDS011;2225;53.568;13.266;2023-12-20T10:54:44;21.63;;;4.70;;
4424;SDS011;2225;53.568;13.266;2023-12-20T10:57:11;21.67;;;3.83;;
4424;SDS011;2225;53.568;13.266;2023-12-20T10:59:38;20.83;;;4.00;;
4424;SDS011;2225;53.568;13.266;2023-12-20T11:02:06;22.23;;;3.20;;
4424;SDS011;2225;53.568;13.266;2023-12-20T11:04:39;24.97;;;4.03;;
4424;SDS011;2225;53.568;13.266;2023-12-20T11:07:39;26.97;;;4.00;;
4424;SDS011;2225;53.568;13.266;2023-12-20T11:10:21;19.40;;;3.13;;
4424;SDS011;2225;53.568;13.266;2023-12-20T11:13:09;11.77;;;2.50;;
4424;SDS011;2225;53.568;13.266;2023-12-20T11:15:51;14.23;;;3.13;;
4424;SDS011;2225;53.568;13.266;2023-12-20T11:18:18;20.63;;;4.10;;
4424;SDS011;2225;53.568;13.266;2023-12-20T11:20:45;20.77;;;3.00;;
4424;SDS011;2225;53.568;13.266;2023-12-20T11:23:12;19.97;;;3.10;;
4424;SDS011;2225;53.568;13.266;2023-12-20T11:25:53;16.03;;;2.97;;
4424;SDS011;2225;53.568;13.266;2023-12-20T11:28:25;14.93;;;3.33;;
4424;SDS011;2225;53.568;13.266;2023-12-20T11:30:54;15.73;;;3.30;;
4424;SDS011;2225;53.568;13.266;2023-12-20T11:33:37;13.00;;;2.93;;
4424;SDS011;2225;53.568;13.266;2023-12-20T11:36:12;18.20;;;3.40;;
4424;SDS011;2225;53.568;13.266;2023-12-20T11:38:54;14.90;;;3.33;;
4424;SDS011;2225;53.568;13.266;2023-12-20T11:41:24;16.77;;;3.23;;
4424;SDS011;2225;53.568;13.266;2023-12-20T11:43:55;10.97;;;2.70;;
4424;SDS011;2225;53.568;13.266;2023-12-20T11:46:22;8.73;;;2.07;;
4424;SDS011;2225;53.568;13.266;2023-12-20T11:48:50;10.93;;;2.37;;
4424;SDS011;2225;53.568;13.266;2023-12-20T11:51:17;11.67;;;2.70;;
4424;SDS011;2225;53.568;13.266;2023-12-20T11:53:44;17.33;;;2.50;;
4424;SDS011;2225;53.568;13.266;2023-12-20T11:56:11;17.03;;;3.23;;
4424;SDS011;2225;53.568;13.266;2023-12-20T11:58:39;14.30;;;2.70;;
4424;SDS011;2225;53.568;13.266;2023-12-20T12:01:06;11.00;;;2.80;;
4424;SDS011;2225;53.568;13.266;2023-12-20T12:03:35;12.97;;;2.80;;
4424;SDS011;2225;53.568;13.266;2023-12-20T12:06:02;14.10;;;2.10;;
4424;SDS011;2225;53.568;13.266;2023-12-20T12:08:31;12.23;;;2.27;;
4424;SDS011;2225;53.568;13.266;2023-12-20T12:10:58;19.33;;;3.07;;
4424;SDS011;2225;53.568;13.266;2023-12-20T12:13:25;9.07;;;2.40;;
4424;SDS011;2225;53.568;13.266;2023-12-20T12:15:54;11.43;;;3.00;;
4424;SDS011;2225;53.568;13.266;2023-12-20T12:18:22;6.17;;;2.23;;
4424;SDS011;2225;53.568;13.266;2023-12-20T12:20:49;13.27;;;2.97;;
4424;SDS011;2225;53.568;13.266;2023-12-20T12:23:22;8.33;;;2.10;;
4424;SDS011;2225;53.568;13.266;2023-12-20T12:25:50;11.63;;;2.43;;
4424;SDS011;2225;53.568;13.266;2023-12-20T12:28:17;8.03;;;1.83;;
4424;SDS011;2225;53.568;13.266;2023-12-20T12:30:57;9.30;;;2.03;;
4424;SDS011;2225;53.568;13.266;2023-12-20T12:33:25;6.80;;;1.20;;
4424;SDS011;2225;53.568;13.266;2023-12-20T12:35:53;5.57;;;1.27;;
4424;SDS011;2225;53.568;13.266;2023-12-20T12:38:21;13.17;;;2.23;;
4424;SDS011;2225;53.568;13.266;2023-12-20T12:40:49;5.00;;;1.33;;
4424;SDS011;2225;53.568;13.266;2023-12-20T12:43:16;9.90;;;1.70;;
4424;SDS011;2225;53.568;13.266;2023-12-20T12:45:43;5.30;;;1.13;;
4424;SDS011;2225;53.568;13.266;2023-12-20T12:48:10;5.63;;;1.50;;
4424;SDS011;2225;53.568;13.266;2023-12-20T12:50:38;12.90;;;1.50;;
4424;SDS011;2225;53.568;13.266;2023-12-20T12:53:05;5.90;;;1.37;;
4424;SDS011;2225;53.568;13.266;2023-12-20T12:55:32;4.00;;;1.00;;
4424;SDS011;2225;53.568;13.266;2023-12-20T12:58:01;11.00;;;2.33;;
4424;SDS011;2225;53.568;13.266;2023-12-20T13:00:28;5.87;;;1.33;;
4424;SDS011;2225;53.568;13.266;2023-12-20T13:02:55;5.33;;;1.30;;
4424;SDS011;2225;53.568;13.266;2023-12-20T13:05:22;6.17;;;1.00;;
4424;SDS011;2225;53.568;13.266;2023-12-20T13:07:49;5.30;;;1.30;;
4424;SDS011;2225;53.568;13.266;2023-12-20T13:10:16;7.07;;;1.30;;
4424;SDS011;2225;53.568;13.266;2023-12-20T13:12:43;8.50;;;1.80;;
4424;SDS011;2225;53.568;13.266;2023-12-20T13:15:10;7.83;;;1.57;;
4424;SDS011;2225;53.568;13.266;2023-12-20T13:17:37;9.33;;;1.20;;
4424;SDS011;2225;53.568;13.266;2023-12-20T13:20:05;10.93;;;1.10;;
4424;SDS011;2225;53.568;13.266;2023-12-20T13:22:32;5.90;;;1.10;;
4424;SDS011;2225;53.568;13.266;2023-12-20T13:24:59;7.80;;;1.30;;
4424;SDS011;2225;53.568;13.266;2023-12-20T13:27:29;11.93;;;1.60;;
4424;SDS011;2225;53.568;13.266;2023-12-20T13:29:55;6.63;;;1.50;;
4424;SDS011;2225;53.568;13.266;2023-12-20T13:32:22;8.07;;;1.27;;
4424;SDS011;2225;53.568;13.266;2023-12-20T13:34:50;7.77;;;1.20;;
4424;SDS011;2225;53.568;13.266;2023-12-20T13:37:17;5.20;;;1.10;;
4424;SDS011;2225;53.568;13.266;2023-12-20T13:39:44;7.47;;;1.60;;
4424;SDS011;2225;53.568;13.266;2023-12-20T13:42:12;4.93;;;1.10;;
4424;SDS011;2225;53.568;13.266;2023-12-20T13:44:39;9.10;;;1.40;;
4424;SDS011;2225;53.568;13.266;2023-12-20T13:47:06;10.70;;;1.27;;
4424;SDS011;2225;53.568;13.266;2023-12-20T13:49:33;10.87;;;1.40;;
4424;SDS011;2225;53.568;13.266;2023-12-20T13:52:00;6.70;;;1.50;;
4424;SDS011;2225;53.568;13.266;2023-12-20T13:54:27;10.33;;;1.17;;
4424;SDS011;2225;53.568;13.266;2023-12-20T13:56:54;9.03;;;1.10;;
4424;SDS011;2225;53.568;13.266;2023-12-20T13:59:37;6.00;;;1.10;;
4424;SDS011;2225;53.568;13.266;2023-12-20T14:02:04;7.50;;;1.60;;
4424;SDS011;2225;53.568;13.266;2023-12-20T14:04:31;7.70;;;1.10;;
4424;SDS011;2225;53.568;13.266;2023-12-20T14:07:08;7.50;;;1.77;;
4424;SDS011;2225;53.568;13.266;2023-12-20T14:09:38;5.60;;;1.40;;
4424;SDS011;2225;53.568;13.266;2023-12-20T14:12:05;7.10;;;1.30;;
4424;SDS011;2225;53.568;13.266;2023-12-20T14:14:33;4.63;;;0.97;;
4424;SDS011;2225;53.568;13.266;2023-12-20T14:16:59;7.50;;;1.57;;
4424;SDS011;2225;53.568;13.266;2023-12-20T14:19:26;5.43;;;1.17;;
4424;SDS011;2225;53.568;13.266;2023-12-20T14:21:53;6.97;;;1.00;;
4424;SDS011;2225;53.568;13.266;2023-12-20T14:24:21;8.40;;;1.30;;
4424;SDS011;2225;53.568;13.266;2023-12-20T14:26:48;7.97;;;1.73;;
4424;SDS011;2225;53.568;13.266;2023-12-20T14:29:14;6.83;;;1.43;;
4424;SDS011;2225;53.568;13.266;2023-12-20T14:31:41;4.10;;;1.10;;
4424;SDS011;2225;53.568;13.266;2023-12-20T14:34:09;9.00;;;1.80;;
4424;SDS011;2225;53.568;13.266;2023-12-20T14:36:36;6.93;;;1.50;;
4424;SDS011;2225;53.568;13.266;2023-12-20T14:39:03;13.27;;;1.70;;
4424;SDS011;2225;53.568;13.266;2023-12-20T14:41:31;8.37;;;1.73;;
4424;SDS011;2225;53.568;13.266;2023-12-20T14:43:58;6.50;;;1.50;;
4424;SDS011;2225;53.568;13.266;2023-12-20T14:46:26;12.20;;;1.87;;
4424;SDS011;2225;53.568;13.266;2023-12-20T14:48:54;10.80;;;1.90;;
4424;SDS011;2225;53.568;13.266;2023-12-20T14:51:22;11.23;;;1.60;;
4424;SDS011;2225;53.568;13.266;2023-12-20T14:53:49;12.60;;;2.60;;
4424;SDS011;2225;53.568;13.266;2023-12-20T14:56:16;6.60;;;1.67;;
4424;SDS011;2225;53.568;13.266;2023-12-20T14:58:43;10.73;;;1.90;;